sensor_id;sensor_type;location;lat;lon;timestamp;P1;durP1;ratioP1;P2;durP2;ratioP2
6739;SDS011;3407;49.882;10.920;2023-04-25T00:01:43;7.33;;;5.30;;
6739;SDS011;3407;49.882;10.920;2023-04-25T00:06:39;4.80;;;4.17;;
6739;SDS011;3407;49.882;10.920;2023-04-25T00:11:35;4.53;;;4.13;;
6739;SDS011;3407;49.882;10.920;2023-04-25T00:16:31;5.90;;;4.07;;
6739;SDS011;3407;49.882;10.920;2023-04-25T00:21:29;4.53;;;4.13;;
6739;SDS011;3407;49.882;10.920;2023-04-25T00:26:26;5.00;;;4.17;;
6739;SDS011;3407;49.882;10.920;2023-04-25T00:31:22;4.10;;;3.80;;
6739;SDS011;3407;49.882;10.920;2023-04-25T00:36:17;5.33;;;4.13;;
6739;SDS011;3407;49.882;10.920;2023-04-25T00:41:13;6.97;;;4.37;;
6739;SDS011;3407;49.882;10.920;2023-04-25T00:46:09;4.50;;;4.10;;
6739;SDS011;3407;49.882;10.920;2023-04-25T00:51:04;4.63;;;3.73;;
6739;SDS011;3407;49.882;10.920;2023-04-25T00:56:01;4.70;;;4.30;;
6739;SDS011;3407;49.882;10.920;2023-04-25T01:00:56;4.17;;;3.77;;
6739;SDS011;3407;49.882;10.920;2023-04-25T01:05:52;3.80;;;3.47;;
6739;SDS011;3407;49.882;10.920;2023-04-25T01:10:48;3.90;;;3.60;;
6739;SDS011;3407;49.882;10.920;2023-04-25T01:15:44;6.77;;;3.87;;
6739;SDS011;3407;49.882;10.920;2023-04-25T01:20:39;7.20;;;3.63;;
6739;SDS011;3407;49.882;10.920;2023-04-25T01:25:38;4.43;;;4.00;;
6739;SDS011;3407;49.882;10.920;2023-04-25T01:30:34;4.60;;;4.10;;
6739;SDS011;3407;49.882;10.920;2023-04-25T01:35:30;3.83;;;3.43;;
6739;SDS011;3407;49.882;10.920;2023-04-25T01:40:26;4.93;;;3.60;;
6739;SDS011;3407;49.882;10.920;2023-04-25T01:45:22;3.83;;;3.53;;
6739;SDS011;3407;49.882;10.920;2023-04-25T01:50:18;4.53;;;3.77;;
6739;SDS011;3407;49.882;10.920;2023-04-25T01:55:15;4.10;;;3.67;;
6739;SDS011;3407;49.882;10.920;2023-04-25T02:00:10;4.23;;;3.87;;
6739;SDS011;3407;49.882;10.920;2023-04-25T02:05:06;6.13;;;4.20;;
6739;SDS011;3407;49.882;10.920;2023-04-25T02:10:02;4.13;;;3.60;;
6739;SDS011;3407;49.882;10.920;2023-04-25T02:14:58;4.33;;;3.93;;
6739;SDS011;3407;49.882;10.920;2023-04-25T02:19:54;4.80;;;4.40;;
6739;SDS011;3407;49.882;10.920;2023-04-25T02:24:49;5.00;;;4.50;;
6739;SDS011;3407;49.882;10.920;2023-04-25T02:29:45;6.23;;;5.23;;
6739;SDS011;3407;49.882;10.920;2023-04-25T02:34:40;6.40;;;5.23;;
6739;SDS011;3407;49.882;10.920;2023-04-25T02:39:36;5.43;;;4.93;;
6739;SDS011;3407;49.882;10.920;2023-04-25T02:44:32;5.27;;;4.77;;
6739;SDS011;3407;49.882;10.920;2023-04-25T02:49:28;6.43;;;5.20;;
6739;SDS011;3407;49.882;10.920;2023-04-25T02:54:23;6.07;;;5.30;;
6739;SDS011;3407;49.882;10.920;2023-04-25T02:59:19;6.23;;;4.97;;
6739;SDS011;3407;49.882;10.920;2023-04-25T03:04:14;7.17;;;4.73;;
6739;SDS011;3407;49.882;10.920;2023-04-25T03:09:10;6.13;;;5.50;;
6739;SDS011;3407;49.882;10.920;2023-04-25T03:14:06;5.87;;;5.27;;
6739;SDS011;3407;49.882;10.920;2023-04-25T03:19:02;6.03;;;5.30;;
6739;SDS011;3407;49.882;10.920;2023-04-25T03:23:58;5.23;;;4.37;;
6739;SDS011;3407;49.882;10.920;2023-04-25T03:28:55;7.37;;;4.77;;
6739;SDS011;3407;49.882;10.920;2023-04-25T03:33:50;5.30;;;4.80;;
6739;SDS011;3407;49.882;10.920;2023-04-25T03:38:46;6.53;;;5.37;;
6739;SDS011;3407;49.882;10.920;2023-04-25T03:43:43;5.80;;;5.20;;
6739;SDS011;3407;49.882;10.920;2023-04-25T03:48:38;5.80;;;4.97;;
6739;SDS011;3407;49.882;10.920;2023-04-25T03:53:34;6.47;;;5.07;;
6739;SDS011;3407;49.882;10.920;2023-04-25T03:58:29;7.10;;;5.13;;
6739;SDS011;3407;49.882;10.920;2023-04-25T04:03:25;9.33;;;5.90;;
6739;SDS011;3407;49.882;10.920;2023-04-25T04:08:20;7.93;;;5.93;;
6739;SDS011;3407;49.882;10.920;2023-04-25T04:13:16;6.20;;;5.03;;
6739;SDS011;3407;49.882;10.920;2023-04-25T04:18:11;6.07;;;5.23;;
6739;SDS011;3407;49.882;10.920;2023-04-25T04:23:07;6.60;;;5.17;;
6739;SDS011;3407;49.882;10.920;2023-04-25T04:28:02;6.63;;;4.90;;
6739;SDS011;3407;49.882;10.920;2023-04-25T04:32:58;7.67;;;5.23;;
6739;SDS011;3407;49.882;10.920;2023-04-25T04:37:53;6.13;;;4.90;;
6739;SDS011;3407;49.882;10.920;2023-04-25T04:42:49;5.33;;;4.80;;
6739;SDS011;3407;49.882;10.920;2023-04-25T04:47:45;6.07;;;4.60;;
6739;SDS011;3407;49.882;10.920;2023-04-25T04:52:40;5.37;;;4.50;;
6739;SDS011;3407;49.882;10.920;2023-04-25T04:57:36;5.40;;;4.23;;
6739;SDS011;3407;49.882;10.920;2023-04-25T05:02:33;4.50;;;4.10;;
6739;SDS011;3407;49.882;10.920;2023-04-25T05:07:28;6.47;;;4.57;;
6739;SDS011;3407;49.882;10.920;2023-04-25T05:12:24;8.10;;;5.20;;
6739;SDS011;3407;49.882;10.920;2023-04-25T05:17:20;5.50;;;4.83;;
6739;SDS011;3407;49.882;10.920;2023-04-25T05:22:15;4.87;;;4.47;;
6739;SDS011;3407;49.882;10.920;2023-04-25T05:27:11;6.20;;;4.63;;
6739;SDS011;3407;49.882;10.920;2023-04-25T05:32:06;6.90;;;5.47;;
6739;SDS011;3407;49.882;10.920;2023-04-25T05:37:03;6.33;;;5.00;;
6739;SDS011;3407;49.882;10.920;2023-04-25T05:41:58;7.00;;;5.70;;
6739;SDS011;3407;49.882;10.920;2023-04-25T05:46:54;5.83;;;5.23;;
6739;SDS011;3407;49.882;10.920;2023-04-25T05:51:50;6.50;;;5.47;;
6739;SDS011;3407;49.882;10.920;2023-04-25T05:56:45;6.80;;;5.97;;
6739;SDS011;3407;49.882;10.920;2023-04-25T06:01:41;6.10;;;5.50;;
6739;SDS011;3407;49.882;10.920;2023-04-25T06:06:37;6.50;;;5.80;;
6739;SDS011;3407;49.882;10.920;2023-04-25T06:11:32;6.90;;;5.97;;
6739;SDS011;3407;49.882;10.920;2023-04-25T06:16:28;8.97;;;6.03;;
6739;SDS011;3407;49.882;10.920;2023-04-25T06:21:23;7.87;;;5.93;;
6739;SDS011;3407;49.882;10.920;2023-04-25T06:26:19;8.43;;;6.57;;
6739;SDS011;3407;49.882;10.920;2023-04-25T06:31:14;10.03;;;7.40;;
6739;SDS011;3407;49.882;10.920;2023-04-25T06:36:10;8.63;;;7.20;;
6739;SDS011;3407;49.882;10.920;2023-04-25T06:41:05;9.77;;;7.27;;
6739;SDS011;3407;49.882;10.920;2023-04-25T06:46:01;9.80;;;8.33;;
6739;SDS011;3407;49.882;10.920;2023-04-25T06:50:56;11.83;;;9.33;;
6739;SDS011;3407;49.882;10.920;2023-04-25T06:55:52;11.67;;;8.57;;
6739;SDS011;3407;49.882;10.920;2023-04-25T07:00:47;10.23;;;8.27;;
6739;SDS011;3407;49.882;10.920;2023-04-25T07:05:43;10.60;;;8.33;;
6739;SDS011;3407;49.882;10.920;2023-04-25T07:10:40;9.97;;;7.40;;
6739;SDS011;3407;49.882;10.920;2023-04-25T07:15:36;9.30;;;7.67;;
6739;SDS011;3407;49.882;10.920;2023-04-25T07:20:31;7.83;;;6.30;;
6739;SDS011;3407;49.882;10.920;2023-04-25T07:25:27;9.87;;;5.97;;
6739;SDS011;3407;49.882;10.920;2023-04-25T07:30:23;6.13;;;4.73;;
6739;SDS011;3407;49.882;10.920;2023-04-25T07:35:18;5.27;;;4.07;;
6739;SDS011;3407;49.882;10.920;2023-04-25T07:40:14;5.07;;;4.20;;
6739;SDS011;3407;49.882;10.920;2023-04-25T07:45:12;4.53;;;3.60;;
6739;SDS011;3407;49.882;10.920;2023-04-25T07:50:08;4.67;;;3.53;;
6739;SDS011;3407;49.882;10.920;2023-04-25T07:55:05;6.03;;;3.60;;
6739;SDS011;3407;49.882;10.920;2023-04-25T08:00:00;4.53;;;3.43;;
6739;SDS011;3407;49.882;10.920;2023-04-25T08:04:56;3.10;;;2.60;;
6739;SDS011;3407;49.882;10.920;2023-04-25T08:09:51;3.10;;;2.80;;
6739;SDS011;3407;49.882;10.920;2023-04-25T08:14:47;2.93;;;2.63;;
6739;SDS011;3407;49.882;10.920;2023-04-25T08:19:42;4.17;;;3.13;;
6739;SDS011;3407;49.882;10.920;2023-04-25T08:24:38;3.90;;;2.87;;
6739;SDS011;3407;49.882;10.920;2023-04-25T08:29:34;2.80;;;2.30;;
6739;SDS011;3407;49.882;10.920;2023-04-25T08:34:30;2.53;;;2.30;;
6739;SDS011;3407;49.882;10.920;2023-04-25T08:39:25;3.13;;;2.83;;
6739;SDS011;3407;49.882;10.920;2023-04-25T08:44:21;2.43;;;1.80;;
6739;SDS011;3407;49.882;10.920;2023-04-25T08:49:17;3.80;;;2.30;;
6739;SDS011;3407;49.882;10.920;2023-04-25T08:54:14;3.40;;;2.60;;
6739;SDS011;3407;49.882;10.920;2023-04-25T08:59:11;2.63;;;2.43;;
6739;SDS011;3407;49.882;10.920;2023-04-25T09:04:07;4.07;;;2.60;;
6739;SDS011;3407;49.882;10.920;2023-04-25T09:09:06;3.50;;;2.40;;
6739;SDS011;3407;49.882;10.920;2023-04-25T09:14:13;3.50;;;2.70;;
6739;SDS011;3407;49.882;10.920;2023-04-25T09:19:20;4.17;;;2.50;;
6739;SDS011;3407;49.882;10.920;2023-04-25T09:24:36;2.90;;;2.60;;
6739;SDS011;3407;49.882;10.920;2023-04-25T09:29:33;6.00;;;2.37;;
6739;SDS011;3407;49.882;10.920;2023-04-25T09:34:37;2.27;;;1.87;;
6739;SDS011;3407;49.882;10.920;2023-04-25T09:39:35;5.80;;;2.50;;
6739;SDS011;3407;49.882;10.920;2023-04-25T09:44:32;4.53;;;2.10;;
6739;SDS011;3407;49.882;10.920;2023-04-25T09:49:27;2.87;;;2.20;;
6739;SDS011;3407;49.882;10.920;2023-04-25T09:54:26;2.87;;;1.90;;
6739;SDS011;3407;49.882;10.920;2023-04-25T09:59:22;4.33;;;2.03;;
6739;SDS011;3407;49.882;10.920;2023-04-25T10:04:22;3.00;;;2.10;;
6739;SDS011;3407;49.882;10.920;2023-04-25T10:09:21;4.53;;;2.27;;
6739;SDS011;3407;49.882;10.920;2023-04-25T10:14:19;2.00;;;1.70;;
6739;SDS011;3407;49.882;10.920;2023-04-25T10:19:16;1.97;;;1.53;;
6739;SDS011;3407;49.882;10.920;2023-04-25T10:24:11;2.20;;;1.40;;
6739;SDS011;3407;49.882;10.920;2023-04-25T10:29:08;1.73;;;1.63;;
6739;SDS011;3407;49.882;10.920;2023-04-25T10:34:04;1.30;;;1.20;;
6739;SDS011;3407;49.882;10.920;2023-04-25T10:39:04;3.70;;;1.50;;
6739;SDS011;3407;49.882;10.920;2023-04-25T10:44:04;1.17;;;1.10;;
6739;SDS011;3407;49.882;10.920;2023-04-25T10:49:00;1.30;;;1.20;;
6739;SDS011;3407;49.882;10.920;2023-04-25T11:04:06;3.10;;;1.10;;
6739;SDS011;3407;49.882;10.920;2023-04-25T11:09:13;2.17;;;1.33;;
6739;SDS011;3407;49.882;10.920;2023-04-25T11:14:09;2.17;;;1.20;;
6739;SDS011;3407;49.882;10.920;2023-04-25T11:19:05;2.50;;;1.80;;
6739;SDS011;3407;49.882;10.920;2023-04-25T11:24:00;1.70;;;1.60;;
6739;SDS011;3407;49.882;10.920;2023-04-25T11:28:59;1.50;;;1.33;;
6739;SDS011;3407;49.882;10.920;2023-04-25T11:33:57;2.63;;;1.70;;
6739;SDS011;3407;49.882;10.920;2023-04-25T11:38:53;1.80;;;1.60;;
6739;SDS011;3407;49.882;10.920;2023-04-25T11:43:49;1.93;;;1.73;;
6739;SDS011;3407;49.882;10.920;2023-04-25T11:48:46;4.83;;;2.77;;
6739;SDS011;3407;49.882;10.920;2023-04-25T11:53:44;2.33;;;1.60;;
6739;SDS011;3407;49.882;10.920;2023-04-25T11:58:59;3.17;;;1.70;;
6739;SDS011;3407;49.882;10.920;2023-04-25T12:04:10;2.33;;;1.97;;
6739;SDS011;3407;49.882;10.920;2023-04-25T12:09:10;1.80;;;1.70;;
6739;SDS011;3407;49.882;10.920;2023-04-25T12:14:08;1.80;;;1.70;;
6739;SDS011;3407;49.882;10.920;2023-04-25T12:19:03;3.17;;;2.20;;
6739;SDS011;3407;49.882;10.920;2023-04-25T12:24:12;3.03;;;1.80;;
6739;SDS011;3407;49.882;10.920;2023-04-25T12:29:19;1.97;;;1.73;;
6739;SDS011;3407;49.882;10.920;2023-04-25T12:34:19;2.00;;;1.90;;
6739;SDS011;3407;49.882;10.920;2023-04-25T12:39:16;2.73;;;1.90;;
6739;SDS011;3407;49.882;10.920;2023-04-25T12:44:12;2.77;;;2.00;;
6739;SDS011;3407;49.882;10.920;2023-04-25T12:49:08;3.03;;;2.17;;
6739;SDS011;3407;49.882;10.920;2023-04-25T12:54:04;2.20;;;2.00;;
6739;SDS011;3407;49.882;10.920;2023-04-25T12:59:02;2.90;;;1.80;;
6739;SDS011;3407;49.882;10.920;2023-04-25T13:03:58;2.37;;;1.70;;
6739;SDS011;3407;49.882;10.920;2023-04-25T13:08:53;1.90;;;1.80;;
6739;SDS011;3407;49.882;10.920;2023-04-25T13:13:49;1.80;;;1.70;;
6739;SDS011;3407;49.882;10.920;2023-04-25T13:18:44;2.27;;;1.70;;
6739;SDS011;3407;49.882;10.920;2023-04-25T13:23:40;1.80;;;1.70;;
6739;SDS011;3407;49.882;10.920;2023-04-25T13:28:37;1.90;;;1.77;;
6739;SDS011;3407;49.882;10.920;2023-04-25T13:33:33;2.07;;;1.83;;
6739;SDS011;3407;49.882;10.920;2023-04-25T13:38:28;2.20;;;2.00;;
6739;SDS011;3407;49.882;10.920;2023-04-25T13:43:24;2.87;;;2.30;;
6739;SDS011;3407;49.882;10.920;2023-04-25T13:48:19;1.87;;;1.60;;
6739;SDS011;3407;49.882;10.920;2023-04-25T13:53:15;2.70;;;2.50;;
6739;SDS011;3407;49.882;10.920;2023-04-25T13:58:11;1.97;;;1.80;;
6739;SDS011;3407;49.882;10.920;2023-04-25T14:03:06;2.70;;;2.10;;
6739;SDS011;3407;49.882;10.920;2023-04-25T14:08:02;2.63;;;2.10;;
6739;SDS011;3407;49.882;10.920;2023-04-25T14:12:58;3.40;;;2.33;;
6739;SDS011;3407;49.882;10.920;2023-04-25T14:17:55;2.87;;;2.67;;
6739;SDS011;3407;49.882;10.920;2023-04-25T14:22:51;3.83;;;2.07;;
6739;SDS011;3407;49.882;10.920;2023-04-25T14:27:48;2.73;;;2.20;;
6739;SDS011;3407;49.882;10.920;2023-04-25T14:32:50;2.40;;;2.00;;
6739;SDS011;3407;49.882;10.920;2023-04-25T14:37:45;2.50;;;2.17;;
6739;SDS011;3407;49.882;10.920;2023-04-25T14:42:41;2.47;;;2.20;;
6739;SDS011;3407;49.882;10.920;2023-04-25T14:47:37;5.07;;;3.10;;
6739;SDS011;3407;49.882;10.920;2023-04-25T14:52:32;5.20;;;3.10;;
6739;SDS011;3407;49.882;10.920;2023-04-25T14:57:28;4.63;;;3.63;;
6739;SDS011;3407;49.882;10.920;2023-04-25T15:02:24;7.73;;;3.37;;
6739;SDS011;3407;49.882;10.920;2023-04-25T15:07:21;3.17;;;2.60;;
6739;SDS011;3407;49.882;10.920;2023-04-25T15:12:17;4.27;;;2.53;;
6739;SDS011;3407;49.882;10.920;2023-04-25T15:17:12;3.00;;;2.70;;
6739;SDS011;3407;49.882;10.920;2023-04-25T15:22:09;4.50;;;2.50;;
6739;SDS011;3407;49.882;10.920;2023-04-25T15:27:05;3.23;;;2.70;;
6739;SDS011;3407;49.882;10.920;2023-04-25T15:32:01;5.40;;;2.67;;
6739;SDS011;3407;49.882;10.920;2023-04-25T15:36:56;2.77;;;2.20;;
6739;SDS011;3407;49.882;10.920;2023-04-25T15:41:52;3.43;;;2.43;;
6739;SDS011;3407;49.882;10.920;2023-04-25T15:46:48;3.17;;;2.30;;
6739;SDS011;3407;49.882;10.920;2023-04-25T15:51:44;6.20;;;2.60;;
6739;SDS011;3407;49.882;10.920;2023-04-25T15:56:39;3.37;;;2.70;;
6739;SDS011;3407;49.882;10.920;2023-04-25T16:01:35;5.70;;;2.67;;
6739;SDS011;3407;49.882;10.920;2023-04-25T16:06:31;5.40;;;2.70;;
6739;SDS011;3407;49.882;10.920;2023-04-25T16:11:27;6.77;;;2.53;;
6739;SDS011;3407;49.882;10.920;2023-04-25T16:16:23;4.30;;;2.90;;
6739;SDS011;3407;49.882;10.920;2023-04-25T16:21:20;3.13;;;2.30;;
6739;SDS011;3407;49.882;10.920;2023-04-25T16:26:15;9.90;;;2.97;;
6739;SDS011;3407;49.882;10.920;2023-04-25T16:31:11;5.43;;;2.03;;
6739;SDS011;3407;49.882;10.920;2023-04-25T16:36:07;4.50;;;2.40;;
6739;SDS011;3407;49.882;10.920;2023-04-25T16:41:03;6.20;;;2.93;;
6739;SDS011;3407;49.882;10.920;2023-04-25T16:45:58;5.90;;;2.60;;
6739;SDS011;3407;49.882;10.920;2023-04-25T16:50:55;2.67;;;2.10;;
6739;SDS011;3407;49.882;10.920;2023-04-25T16:55:50;4.20;;;2.23;;
6739;SDS011;3407;49.882;10.920;2023-04-25T17:00:46;4.60;;;2.70;;
6739;SDS011;3407;49.882;10.920;2023-04-25T17:05:41;6.20;;;2.60;;
6739;SDS011;3407;49.882;10.920;2023-04-25T17:10:37;8.73;;;2.87;;
6739;SDS011;3407;49.882;10.920;2023-04-25T17:15:32;3.80;;;2.60;;
6739;SDS011;3407;49.882;10.920;2023-04-25T17:20:28;6.67;;;2.53;;
6739;SDS011;3407;49.882;10.920;2023-04-25T17:25:24;7.77;;;2.50;;
6739;SDS011;3407;49.882;10.920;2023-04-25T17:30:19;5.30;;;2.60;;
6739;SDS011;3407;49.882;10.920;2023-04-25T17:35:15;5.97;;;2.37;;
6739;SDS011;3407;49.882;10.920;2023-04-25T17:40:11;8.53;;;2.83;;
6739;SDS011;3407;49.882;10.920;2023-04-25T17:45:07;5.10;;;3.03;;
6739;SDS011;3407;49.882;10.920;2023-04-25T17:50:04;4.03;;;3.00;;
6739;SDS011;3407;49.882;10.920;2023-04-25T17:55:01;6.23;;;2.87;;
6739;SDS011;3407;49.882;10.920;2023-04-25T17:59:57;4.20;;;2.67;;
6739;SDS011;3407;49.882;10.920;2023-04-25T18:04:52;2.73;;;2.40;;
6739;SDS011;3407;49.882;10.920;2023-04-25T18:09:48;4.73;;;2.67;;
6739;SDS011;3407;49.882;10.920;2023-04-25T18:14:43;5.57;;;3.00;;
6739;SDS011;3407;49.882;10.920;2023-04-25T18:19:40;6.63;;;2.70;;
6739;SDS011;3407;49.882;10.920;2023-04-25T18:24:35;6.40;;;3.20;;
6739;SDS011;3407;49.882;10.920;2023-04-25T18:29:31;3.63;;;2.70;;
6739;SDS011;3407;49.882;10.920;2023-04-25T18:34:27;3.57;;;2.43;;
6739;SDS011;3407;49.882;10.920;2023-04-25T18:39:22;5.00;;;2.30;;
6739;SDS011;3407;49.882;10.920;2023-04-25T18:44:18;3.07;;;2.17;;
6739;SDS011;3407;49.882;10.920;2023-04-25T18:49:14;6.53;;;2.67;;
6739;SDS011;3407;49.882;10.920;2023-04-25T18:54:09;4.60;;;2.30;;
6739;SDS011;3407;49.882;10.920;2023-04-25T18:59:05;8.87;;;2.70;;
6739;SDS011;3407;49.882;10.920;2023-04-25T19:04:01;4.37;;;2.77;;
6739;SDS011;3407;49.882;10.920;2023-04-25T19:08:58;2.60;;;2.40;;
6739;SDS011;3407;49.882;10.920;2023-04-25T19:13:53;6.00;;;3.00;;
6739;SDS011;3407;49.882;10.920;2023-04-25T19:18:52;4.43;;;2.93;;
6739;SDS011;3407;49.882;10.920;2023-04-25T19:23:49;4.33;;;2.90;;
6739;SDS011;3407;49.882;10.920;2023-04-25T19:29:01;3.57;;;2.60;;
6739;SDS011;3407;49.882;10.920;2023-04-25T19:33:58;3.53;;;2.30;;
6739;SDS011;3407;49.882;10.920;2023-04-25T19:38:54;3.47;;;2.30;;
6739;SDS011;3407;49.882;10.920;2023-04-25T19:43:56;4.47;;;2.30;;
6739;SDS011;3407;49.882;10.920;2023-04-25T19:48:54;4.50;;;2.40;;
6739;SDS011;3407;49.882;10.920;2023-04-25T19:53:51;8.10;;;3.10;;
6739;SDS011;3407;49.882;10.920;2023-04-25T19:58:49;3.97;;;3.03;;
6739;SDS011;3407;49.882;10.920;2023-04-25T20:03:44;3.27;;;2.30;;
6739;SDS011;3407;49.882;10.920;2023-04-25T20:08:42;4.23;;;2.53;;
6739;SDS011;3407;49.882;10.920;2023-04-25T20:13:38;3.33;;;2.70;;
6739;SDS011;3407;49.882;10.920;2023-04-25T20:18:33;4.80;;;2.60;;
6739;SDS011;3407;49.882;10.920;2023-04-25T20:23:29;8.20;;;2.80;;
6739;SDS011;3407;49.882;10.920;2023-04-25T20:28:24;5.23;;;2.87;;
6739;SDS011;3407;49.882;10.920;2023-04-25T20:33:21;5.47;;;2.47;;
6739;SDS011;3407;49.882;10.920;2023-04-25T20:38:17;5.07;;;2.30;;
6739;SDS011;3407;49.882;10.920;2023-04-25T20:43:12;6.50;;;2.97;;
6739;SDS011;3407;49.882;10.920;2023-04-25T20:48:08;3.37;;;2.33;;
6739;SDS011;3407;49.882;10.920;2023-04-25T20:53:03;5.87;;;2.80;;
6739;SDS011;3407;49.882;10.920;2023-04-25T20:57:59;3.10;;;2.30;;
6739;SDS011;3407;49.882;10.920;2023-04-25T21:02:55;3.63;;;2.43;;
6739;SDS011;3407;49.882;10.920;2023-04-25T21:07:51;2.77;;;2.57;;
6739;SDS011;3407;49.882;10.920;2023-04-25T21:12:46;8.77;;;3.63;;
6739;SDS011;3407;49.882;10.920;2023-04-25T21:17:43;5.90;;;2.57;;
6739;SDS011;3407;49.882;10.920;2023-04-25T21:22:41;4.10;;;3.50;;
6739;SDS011;3407;49.882;10.920;2023-04-25T21:27:42;7.20;;;2.80;;
6739;SDS011;3407;49.882;10.920;2023-04-25T21:32:39;4.50;;;2.70;;
6739;SDS011;3407;49.882;10.920;2023-04-25T21:37:34;5.73;;;2.70;;
6739;SDS011;3407;49.882;10.920;2023-04-25T21:42:30;6.43;;;2.87;;
6739;SDS011;3407;49.882;10.920;2023-04-25T21:47:26;2.80;;;2.60;;
6739;SDS011;3407;49.882;10.920;2023-04-25T21:52:21;4.17;;;2.87;;
6739;SDS011;3407;49.882;10.920;2023-04-25T21:57:17;3.83;;;2.63;;
6739;SDS011;3407;49.882;10.920;2023-04-25T22:02:13;7.07;;;3.00;;
6739;SDS011;3407;49.882;10.920;2023-04-25T22:07:09;7.33;;;2.83;;
6739;SDS011;3407;49.882;10.920;2023-04-25T22:12:05;4.30;;;2.77;;
6739;SDS011;3407;49.882;10.920;2023-04-25T22:17:01;4.13;;;2.67;;
6739;SDS011;3407;49.882;10.920;2023-04-25T22:21:58;5.90;;;2.80;;
6739;SDS011;3407;49.882;10.920;2023-04-25T22:26:53;5.33;;;2.53;;
6739;SDS011;3407;49.882;10.920;2023-04-25T22:31:49;2.90;;;2.60;;
6739;SDS011;3407;49.882;10.920;2023-04-25T22:36:45;2.60;;;2.50;;
6739;SDS011;3407;49.882;10.920;2023-04-25T22:41:40;5.90;;;2.67;;
6739;SDS011;3407;49.882;10.920;2023-04-25T22:46:36;2.90;;;2.70;;
6739;SDS011;3407;49.882;10.920;2023-04-25T22:51:32;4.73;;;2.63;;
6739;SDS011;3407;49.882;10.920;2023-04-25T22:56:30;6.70;;;2.90;;
6739;SDS011;3407;49.882;10.920;2023-04-25T23:01:29;5.97;;;2.80;;
6739;SDS011;3407;49.882;10.920;2023-04-25T23:06:25;4.93;;;3.03;;
6739;SDS011;3407;49.882;10.920;2023-04-25T23:11:20;4.63;;;3.00;;
6739;SDS011;3407;49.882;10.920;2023-04-25T23:16:17;8.97;;;3.17;;
6739;SDS011;3407;49.882;10.920;2023-04-25T23:21:13;10.13;;;4.07;;
6739;SDS011;3407;49.882;10.920;2023-04-25T23:26:09;5.07;;;3.47;;
6739;SDS011;3407;49.882;10.920;2023-04-25T23:31:06;4.27;;;3.77;;
6739;SDS011;3407;49.882;10.920;2023-04-25T23:36:02;38.93;;;15.97;;
6739;SDS011;3407;49.882;10.920;2023-04-25T23:41:03;10.30;;;4.80;;
6739;SDS011;3407;49.882;10.920;2023-04-25T23:45:58;3.93;;;3.13;;
6739;SDS011;3407;49.882;10.920;2023-04-25T23:50:54;3.33;;;3.13;;
6739;SDS011;3407;49.882;10.920;2023-04-25T23:55:50;3.60;;;3.13;;
